createdAt,value
2018-05-31T00:00:33.457Z,74.00
2018-05-31T00:03:01.038Z,73.10
2018-05-31T00:05:28.577Z,73.90
2018-05-31T00:07:56.120Z,74.20
2018-05-31T00:10:23.708Z,74.20
2018-05-31T00:12:51.256Z,73.70
2018-05-31T00:15:18.809Z,74.00
2018-05-31T00:17:46.434Z,74.80
2018-05-31T00:20:13.993Z,74.60
2018-05-31T00:22:42.337Z,74.60
2018-05-31T00:25:09.880Z,74.60
2018-05-31T00:27:37.457Z,73.80
2018-05-31T00:30:05.004Z,73.10
2018-05-31T00:32:32.571Z,72.80
2018-05-31T00:35:00.129Z,72.60
2018-05-31T00:37:27.756Z,72.20
2018-05-31T00:39:55.298Z,72.00
2018-05-31T00:42:22.878Z,71.30
2018-05-31T00:44:50.419Z,71.50
2018-05-31T00:47:18.014Z,71.50
2018-05-31T00:49:45.567Z,70.90
2018-05-31T00:52:13.144Z,71.30
2018-05-31T00:54:40.740Z,70.90
2018-05-31T00:57:08.332Z,70.00
2018-05-31T00:59:35.937Z,69.60
2018-05-31T01:02:03.500Z,69.50
2018-05-31T01:04:31.100Z,69.80
2018-05-31T01:06:58.656Z,70.10
2018-05-31T01:09:26.798Z,70.10
2018-05-31T01:11:54.381Z,70.40
2018-05-31T01:14:21.946Z,70.30
2018-05-31T01:16:49.484Z,70.70
2018-05-31T01:19:17.058Z,71.20
2018-05-31T01:21:44.595Z,71.20
2018-05-31T01:24:12.139Z,71.00
2018-05-31T01:26:39.687Z,70.80
2018-05-31T01:29:07.220Z,70.30
2018-05-31T01:31:34.777Z,70.40
2018-05-31T01:34:02.334Z,70.80
2018-05-31T01:36:30.648Z,71.30
2018-05-31T01:38:58.217Z,71.10
2018-05-31T01:41:25.800Z,71.00
2018-05-31T01:43:53.346Z,70.50
2018-05-31T01:46:20.883Z,71.00
2018-05-31T01:48:48.475Z,71.20
2018-05-31T01:51:16.020Z,70.40
2018-05-31T01:53:43.627Z,70.20
2018-05-31T01:56:11.225Z,69.60
2018-05-31T01:58:38.800Z,69.70
2018-05-31T02:01:06.388Z,69.30
2018-05-31T02:03:33.976Z,69.70
2018-05-31T02:06:02.469Z,69.80
2018-05-31T02:08:30.080Z,69.50
2018-05-31T02:10:58.435Z,70.10
2018-05-31T02:13:26.004Z,70.00
2018-05-31T02:15:53.588Z,70.50
2018-05-31T02:18:21.166Z,70.40
2018-05-31T02:20:48.739Z,70.90
2018-05-31T02:23:16.287Z,70.90
2018-05-31T02:25:43.828Z,70.90
2018-05-31T02:28:12.176Z,71.30
2018-05-31T02:30:39.763Z,70.60
2018-05-31T02:33:07.297Z,70.30
2018-05-31T02:35:35.055Z,70.40
2018-05-31T02:38:02.623Z,70.10
2018-05-31T02:40:30.165Z,70.30
2018-05-31T02:42:57.786Z,70.20
2018-05-31T02:45:25.368Z,70.20
2018-05-31T02:47:52.933Z,69.90
2018-05-31T02:50:20.519Z,69.50
2018-05-31T02:52:48.062Z,69.30
2018-05-31T02:55:15.661Z,69.30
2018-05-31T02:57:43.212Z,69.30
2018-05-31T03:00:10.801Z,69.70
2018-05-31T03:02:39.200Z,69.90
2018-05-31T03:05:06.755Z,69.90
2018-05-31T03:07:34.292Z,69.60
2018-05-31T03:10:02.671Z,69.90
2018-05-31T03:12:30.983Z,69.50
2018-05-31T03:14:58.576Z,69.50
2018-05-31T03:17:26.168Z,69.50
2018-05-31T03:19:53.733Z,69.70
2018-05-31T03:22:22.043Z,69.50
2018-05-31T03:24:49.607Z,69.50
2018-05-31T03:27:17.252Z,69.30
2018-05-31T03:29:44.797Z,69.40
2018-05-31T03:32:13.103Z,69.60
2018-05-31T03:34:41.560Z,69.40
2018-05-31T03:37:09.900Z,69.20
2018-05-31T03:39:37.486Z,69.20
2018-05-31T03:42:05.036Z,69.50
2018-05-31T03:44:32.607Z,69.40
2018-05-31T03:47:00.932Z,69.60
2018-05-31T03:49:28.502Z,69.60
2018-05-31T03:51:56.074Z,69.60
2018-05-31T03:54:23.673Z,69.70
2018-05-31T03:56:51.236Z,69.70
2018-05-31T03:59:18.831Z,69.40
2018-05-31T04:01:46.380Z,69.30
2018-05-31T04:04:13.957Z,69.30
2018-05-31T04:06:42.193Z,69.20
2018-05-31T04:09:09.759Z,69.40
2018-05-31T04:11:38.308Z,69.60
2018-05-31T04:14:05.881Z,69.90
2018-05-31T04:16:33.441Z,70.00
2018-05-31T04:19:01.804Z,69.20
2018-05-31T04:21:29.396Z,69.20
2018-05-31T04:23:56.998Z,68.60
2018-05-31T04:26:24.552Z,68.50
2018-05-31T04:28:52.097Z,68.30
2018-05-31T04:31:19.674Z,68.50
2018-05-31T04:33:47.218Z,68.70
2018-05-31T04:36:14.814Z,68.50
2018-05-31T04:38:42.372Z,68.30
2018-05-31T04:41:09.965Z,68.20
2018-05-31T04:43:38.319Z,68.80
2018-05-31T04:46:05.870Z,68.60
2018-05-31T04:48:33.456Z,68.80
2018-05-31T04:51:01.036Z,68.60
2018-05-31T04:53:28.688Z,68.50
2018-05-31T04:55:56.204Z,68.70
2018-05-31T04:58:23.814Z,68.60
2018-05-31T05:00:51.413Z,68.50
2018-05-31T05:03:19.004Z,68.50
2018-05-31T05:05:47.253Z,68.30
2018-05-31T05:08:14.830Z,68.20
2018-05-31T05:10:42.378Z,68.40
2018-05-31T05:13:10.021Z,68.70
2018-05-31T05:15:37.605Z,68.60
2018-05-31T05:18:05.185Z,68.40
2018-05-31T05:20:33.622Z,68.70
2018-05-31T05:23:01.212Z,68.60
2018-05-31T05:25:28.819Z,68.80
2018-05-31T05:27:57.113Z,68.40
2018-05-31T05:30:24.711Z,68.30
2018-05-31T05:32:52.266Z,68.30
2018-05-31T05:35:20.653Z,68.00
2018-05-31T05:37:48.261Z,68.00
2018-05-31T05:40:15.853Z,67.80
2018-05-31T05:42:43.432Z,67.80
2018-05-31T05:45:10.987Z,67.80
2018-05-31T05:47:38.565Z,67.60
2018-05-31T05:50:06.153Z,67.60
2018-05-31T05:52:33.671Z,67.80
2018-05-31T05:55:01.286Z,67.80
2018-05-31T05:57:28.836Z,67.80
2018-05-31T05:59:57.220Z,66.80
2018-05-31T06:02:24.784Z,66.80
2018-05-31T06:04:52.359Z,66.70
2018-05-31T06:07:19.911Z,66.70
2018-05-31T06:09:48.283Z,66.30
2018-05-31T06:12:15.945Z,66.10
2018-05-31T06:14:43.490Z,66.30
2018-05-31T06:17:11.835Z,66.80
2018-05-31T06:19:39.440Z,66.90
2018-05-31T06:22:07.019Z,66.50
2018-05-31T06:24:34.635Z,66.50
2018-05-31T06:27:02.531Z,66.60
2018-05-31T06:29:30.155Z,66.40
2018-05-31T06:31:57.705Z,65.70
2018-05-31T06:34:25.315Z,65.40
2018-05-31T06:36:52.911Z,65.30
2018-05-31T06:39:20.574Z,64.50
2018-05-31T06:41:48.150Z,64.20
2018-05-31T06:44:15.708Z,64.40
2018-05-31T06:46:43.286Z,63.20
2018-05-31T06:49:10.884Z,62.20
2018-05-31T06:51:38.475Z,61.50
2018-05-31T06:54:06.040Z,61.20
2018-05-31T06:56:33.572Z,60.90
2018-05-31T06:59:01.146Z,60.50
2018-05-31T07:01:28.715Z,60.30
2018-05-31T07:03:56.303Z,60.10
2018-05-31T07:06:23.925Z,59.60
2018-05-31T07:08:51.448Z,59.30
2018-05-31T07:11:19.065Z,58.40
2018-05-31T07:13:46.634Z,58.20
2018-05-31T07:16:14.198Z,58.30
2018-05-31T07:18:41.726Z,58.20
2018-05-31T07:21:09.376Z,57.70
2018-05-31T07:23:36.968Z,57.30
2018-05-31T07:26:04.511Z,57.40
2018-05-31T07:28:32.087Z,56.90
2018-05-31T07:31:00.162Z,56.80
2018-05-31T07:33:27.749Z,56.70
2018-05-31T07:35:55.295Z,56.50
2018-05-31T07:38:22.939Z,56.40
2018-05-31T07:40:50.516Z,56.60
2018-05-31T07:43:18.075Z,56.30
2018-05-31T07:45:45.605Z,56.40
2018-05-31T07:48:13.183Z,56.10
2018-05-31T07:50:40.772Z,55.80
2018-05-31T07:53:09.085Z,55.60
2018-05-31T07:55:36.645Z,56.10
2018-05-31T07:58:04.257Z,55.20
2018-05-31T08:00:31.849Z,55.20
2018-05-31T08:03:00.177Z,55.40
2018-05-31T08:05:27.770Z,55.40
2018-05-31T08:07:55.355Z,55.60
2018-05-31T08:10:22.952Z,55.60
2018-05-31T08:12:50.502Z,55.30
2018-05-31T08:15:18.042Z,55.00
2018-05-31T08:17:45.733Z,54.90
2018-05-31T08:20:13.354Z,54.90
2018-05-31T08:22:41.673Z,54.50
2018-05-31T08:25:09.479Z,55.10
2018-05-31T08:27:37.804Z,54.20
2018-05-31T08:30:05.426Z,54.20
2018-05-31T08:32:32.992Z,54.20
2018-05-31T08:35:00.567Z,54.20
2018-05-31T08:37:28.145Z,54.40
2018-05-31T08:39:55.704Z,54.00
2018-05-31T08:42:23.268Z,53.30
2018-05-31T08:44:50.806Z,52.70
2018-05-31T08:47:18.365Z,52.90
2018-05-31T08:49:45.975Z,53.40
2018-05-31T08:52:13.653Z,53.90
2018-05-31T08:54:41.316Z,53.80
2018-05-31T08:57:08.844Z,53.90
2018-05-31T08:59:36.409Z,53.70
2018-05-31T09:02:03.957Z,53.40
2018-05-31T09:04:31.527Z,53.70
2018-05-31T09:06:59.124Z,53.20
2018-05-31T09:09:26.825Z,53.60
2018-05-31T09:11:55.125Z,53.60
2018-05-31T09:14:22.715Z,53.50
2018-05-31T09:16:50.289Z,53.50
2018-05-31T09:19:18.622Z,53.50
2018-05-31T09:21:46.257Z,53.50
2018-05-31T09:24:13.789Z,53.50
2018-05-31T09:26:41.508Z,53.50
2018-05-31T09:29:09.320Z,53.30
2018-05-31T09:31:37.723Z,53.80
2018-05-31T09:34:05.254Z,53.70
2018-05-31T09:36:32.814Z,53.50
2018-05-31T09:39:01.148Z,53.90
2018-05-31T09:41:28.693Z,53.90
2018-05-31T09:43:56.260Z,54.00
2018-05-31T09:46:23.813Z,53.80
2018-05-31T09:48:51.384Z,54.40
2018-05-31T09:51:18.915Z,54.40
2018-05-31T09:53:46.491Z,54.50
2018-05-31T09:56:14.020Z,54.50
2018-05-31T09:58:41.608Z,54.10
2018-05-31T10:01:09.436Z,54.40
2018-05-31T10:03:37.011Z,54.20
2018-05-31T10:06:05.326Z,54.70
2018-05-31T10:08:32.934Z,54.70
2018-05-31T10:11:00.555Z,54.50
2018-05-31T10:13:28.165Z,54.50
2018-05-31T10:15:55.707Z,54.50
2018-05-31T10:18:23.295Z,54.70
2018-05-31T10:20:50.879Z,54.90
2018-05-31T10:23:18.423Z,54.70
2018-05-31T10:25:46.025Z,54.50
2018-05-31T10:28:13.729Z,54.70
2018-05-31T10:30:42.017Z,54.70
2018-05-31T10:33:09.597Z,54.70
2018-05-31T10:35:37.121Z,54.80
2018-05-31T10:38:05.439Z,54.90
2018-05-31T10:40:32.999Z,54.80
2018-05-31T10:43:00.597Z,54.80
2018-05-31T10:45:28.180Z,54.70
2018-05-31T10:47:55.744Z,55.20
2018-05-31T10:50:23.292Z,55.00
2018-05-31T10:52:51.634Z,55.20
2018-05-31T10:55:19.202Z,55.20
2018-05-31T10:57:46.738Z,55.00
2018-05-31T11:00:14.285Z,55.20
2018-05-31T11:02:41.808Z,55.00
2018-05-31T11:05:10.206Z,54.90
2018-05-31T11:07:37.753Z,54.90
2018-05-31T11:10:05.356Z,54.70
2018-05-31T11:12:32.913Z,54.50
2018-05-31T11:15:00.552Z,54.20
2018-05-31T11:17:28.095Z,54.30
2018-05-31T11:19:56.400Z,53.90
2018-05-31T11:22:23.959Z,53.90
2018-05-31T11:24:51.482Z,53.60
2018-05-31T11:27:19.098Z,53.40
2018-05-31T11:29:46.652Z,53.30
2018-05-31T11:32:14.254Z,53.10
2018-05-31T11:34:41.791Z,53.40
2018-05-31T11:37:09.356Z,53.40
2018-05-31T11:39:37.023Z,53.70
2018-05-31T11:42:04.584Z,53.30
2018-05-31T11:44:32.138Z,53.50
2018-05-31T11:46:59.722Z,53.60
2018-05-31T11:49:27.315Z,53.70
2018-05-31T11:51:54.878Z,54.60
2018-05-31T11:54:22.445Z,53.70
2018-05-31T11:56:50.062Z,53.70
2018-05-31T11:59:18.515Z,53.70
2018-05-31T12:01:46.262Z,53.70
2018-05-31T12:04:13.835Z,53.20
2018-05-31T12:06:41.363Z,52.50
2018-05-31T12:09:08.953Z,52.40
2018-05-31T12:11:36.493Z,52.50
2018-05-31T12:14:04.076Z,52.50
2018-05-31T12:16:31.652Z,52.40
2018-05-31T12:18:59.214Z,52.40
2018-05-31T12:21:26.756Z,50.40
2018-05-31T12:23:54.370Z,50.60
2018-05-31T12:26:23.177Z,47.90
2018-05-31T12:28:50.719Z,47.90
2018-05-31T12:31:18.361Z,47.80
2018-05-31T12:33:45.937Z,48.60
2018-05-31T12:36:13.513Z,48.50
2018-05-31T12:38:41.059Z,49.00
2018-05-31T12:41:08.637Z,49.50
2018-05-31T12:43:36.213Z,49.40
2018-05-31T12:46:03.794Z,49.70
2018-05-31T12:48:31.396Z,48.20
2018-05-31T12:50:59.765Z,47.60
2018-05-31T12:53:28.096Z,48.50
2018-05-31T12:55:55.666Z,48.50
2018-05-31T12:58:23.260Z,48.30
2018-05-31T13:00:51.626Z,48.60
2018-05-31T13:03:19.181Z,49.20
2018-05-31T13:05:46.847Z,48.90
2018-05-31T13:08:14.415Z,48.70
2018-05-31T13:10:42.722Z,47.80
2018-05-31T13:13:10.309Z,47.70
2018-05-31T13:15:37.849Z,48.00
2018-05-31T13:18:05.757Z,46.30
2018-05-31T13:20:33.317Z,46.30
2018-05-31T13:23:00.875Z,46.80
2018-05-31T13:25:28.527Z,47.20
2018-05-31T13:27:56.137Z,48.20
2018-05-31T13:30:23.686Z,46.60
2018-05-31T13:32:52.027Z,47.30
2018-05-31T13:35:19.608Z,47.30
2018-05-31T13:37:47.188Z,47.40
2018-05-31T13:40:14.735Z,47.20
2018-05-31T13:42:42.299Z,47.00
2018-05-31T13:45:09.841Z,46.40
2018-05-31T13:47:37.455Z,46.50
2018-05-31T13:50:05.021Z,46.20
2018-05-31T13:52:32.704Z,46.20
2018-05-31T13:55:00.257Z,46.40
2018-05-31T13:57:28.775Z,47.10
2018-05-31T13:59:56.305Z,47.50
2018-05-31T14:02:23.834Z,47.90
2018-05-31T14:04:51.404Z,48.10
2018-05-31T14:07:19.063Z,48.40
2018-05-31T14:09:46.758Z,48.50
2018-05-31T14:12:14.359Z,49.00
2018-05-31T14:14:41.981Z,48.80
2018-05-31T14:17:09.623Z,48.50
2018-05-31T14:19:37.184Z,48.70
2018-05-31T14:22:04.747Z,48.70
2018-05-31T14:24:32.342Z,49.00
2018-05-31T14:26:59.963Z,47.70
2018-05-31T14:29:27.591Z,48.20
2018-05-31T14:31:55.930Z,47.90
2018-05-31T14:34:23.488Z,47.90
2018-05-31T14:36:51.088Z,48.30
2018-05-31T14:39:18.646Z,48.20
2018-05-31T14:41:46.995Z,47.80
2018-05-31T14:44:14.583Z,47.80
2018-05-31T14:46:42.212Z,48.60
2018-05-31T14:49:09.800Z,48.60
2018-05-31T14:51:37.357Z,49.20
2018-05-31T14:54:05.684Z,49.80
2018-05-31T14:56:33.319Z,49.80
2018-05-31T14:59:00.909Z,50.20
2018-05-31T15:01:28.483Z,50.30
2018-05-31T15:03:56.056Z,50.90
2018-05-31T15:06:23.696Z,51.20
2018-05-31T15:08:51.257Z,51.20
2018-05-31T15:11:18.867Z,51.30
2018-05-31T15:13:46.433Z,51.00
2018-05-31T15:16:14.806Z,50.50
2018-05-31T15:18:42.528Z,50.50
2018-05-31T15:21:10.107Z,50.30
2018-05-31T15:23:37.668Z,49.90
2018-05-31T15:26:05.369Z,49.50
2018-05-31T15:28:32.956Z,49.50
2018-05-31T15:31:00.540Z,48.20
2018-05-31T15:33:28.471Z,47.90
2018-05-31T15:35:56.052Z,48.00
2018-05-31T15:38:23.624Z,48.20
2018-05-31T15:40:51.191Z,48.30
2018-05-31T15:43:19.099Z,48.60
2018-05-31T15:45:46.724Z,49.50
2018-05-31T15:48:15.466Z,50.20
2018-05-31T15:50:43.048Z,50.10
2018-05-31T15:53:10.631Z,50.90
2018-05-31T15:55:39.060Z,50.20
2018-05-31T15:58:06.626Z,50.70
2018-05-31T16:00:34.233Z,50.70
2018-05-31T16:03:01.826Z,50.60
2018-05-31T16:05:30.367Z,51.20
2018-05-31T16:07:57.986Z,51.30
2018-05-31T16:10:25.518Z,51.90
2018-05-31T16:12:53.904Z,52.40
2018-05-31T16:15:21.523Z,52.40
2018-05-31T16:17:49.093Z,52.50
2018-05-31T16:20:16.704Z,52.80
2018-05-31T16:22:44.295Z,53.00
2018-05-31T16:25:11.861Z,53.20
2018-05-31T16:27:39.475Z,54.10
2018-05-31T16:30:07.068Z,54.30
2018-05-31T16:32:34.676Z,54.50
2018-05-31T16:35:02.282Z,54.60
2018-05-31T16:37:29.835Z,54.60
2018-05-31T16:39:57.432Z,54.70
2018-05-31T16:42:24.973Z,54.70
2018-05-31T16:44:52.545Z,54.90
2018-05-31T16:47:20.125Z,55.00
2018-05-31T16:49:47.723Z,54.90
2018-05-31T16:52:15.331Z,54.50
2018-05-31T16:54:43.630Z,54.50
2018-05-31T16:57:11.185Z,54.40
2018-05-31T16:59:38.833Z,54.50
2018-05-31T17:02:06.394Z,54.50
2018-05-31T17:04:33.972Z,54.70
2018-05-31T17:07:01.543Z,54.80
2018-05-31T17:09:29.164Z,54.80
2018-05-31T17:11:56.813Z,55.00
2018-05-31T17:14:24.423Z,55.30
2018-05-31T17:16:52.058Z,55.30
2018-05-31T17:19:19.640Z,55.20
2018-05-31T17:21:47.256Z,55.20
2018-05-31T17:24:14.852Z,55.40
2018-05-31T17:26:42.403Z,55.40
2018-05-31T17:29:09.988Z,54.50
2018-05-31T17:31:37.537Z,55.60
2018-05-31T17:34:05.160Z,55.80
2018-05-31T17:36:32.731Z,55.90
2018-05-31T17:39:00.348Z,56.00
2018-05-31T17:41:27.941Z,56.00
2018-05-31T17:43:55.503Z,56.10
2018-05-31T17:46:23.072Z,56.00
2018-05-31T17:48:51.185Z,56.50
2018-05-31T17:51:18.799Z,56.40
2018-05-31T17:53:46.392Z,56.30
2018-05-31T17:56:13.970Z,56.20
2018-05-31T17:58:42.328Z,56.40
2018-05-31T18:01:09.971Z,56.40
2018-05-31T18:03:37.517Z,56.90
2018-05-31T18:06:05.097Z,56.70
2018-05-31T18:08:32.699Z,56.70
2018-05-31T18:11:01.036Z,56.90
2018-05-31T18:13:29.397Z,57.10
2018-05-31T18:15:56.967Z,57.10
2018-05-31T18:18:25.810Z,57.20
2018-05-31T18:20:54.190Z,57.20
2018-05-31T18:23:21.779Z,57.20
2018-05-31T18:25:49.440Z,57.60
2018-05-31T18:28:17.067Z,57.90
2018-05-31T18:30:45.434Z,58.90
2018-05-31T18:33:13.012Z,58.80
2018-05-31T18:38:23.224Z,58.40
2018-05-31T18:40:50.847Z,58.60
2018-05-31T18:43:18.446Z,58.70
2018-05-31T18:45:46.084Z,58.90
2018-05-31T18:48:13.675Z,59.10
2018-05-31T18:50:41.234Z,59.00
2018-05-31T18:53:08.805Z,59.30
2018-05-31T18:55:36.354Z,59.20
2018-05-31T18:58:04.284Z,58.90
2018-05-31T19:00:31.898Z,58.80
2018-05-31T19:02:59.459Z,58.80
2018-05-31T19:05:27.018Z,58.80
2018-05-31T19:07:55.261Z,58.70
2018-05-31T19:10:22.869Z,58.70
2018-05-31T19:12:56.187Z,58.70
2018-05-31T19:15:24.529Z,58.90
2018-05-31T19:17:52.066Z,58.90
2018-05-31T19:20:19.622Z,58.90
2018-05-31T19:22:47.203Z,59.10
2018-05-31T19:25:20.304Z,59.00
2018-05-31T19:27:47.893Z,59.30
2018-05-31T19:30:20.997Z,59.40
2018-05-31T19:32:48.604Z,59.40
2018-05-31T19:35:21.960Z,59.70
2018-05-31T19:37:49.512Z,59.90
2018-05-31T19:40:17.063Z,60.00
2018-05-31T19:42:50.291Z,60.00
2018-05-31T19:45:17.883Z,60.50
2018-05-31T19:47:45.439Z,61.50
2018-05-31T19:50:12.999Z,62.60
2018-05-31T19:52:46.284Z,62.10
2018-05-31T19:55:13.827Z,62.10
2018-05-31T19:57:47.910Z,62.30
2018-05-31T20:00:21.816Z,62.10
2018-05-31T20:02:55.670Z,62.10
2018-05-31T20:05:23.279Z,62.10
2018-05-31T20:07:50.894Z,62.10
2018-05-31T20:10:18.531Z,62.10
2018-05-31T20:12:46.132Z,62.00
2018-05-31T20:15:13.679Z,61.90
2018-05-31T20:17:41.279Z,62.20
2018-05-31T20:20:08.834Z,62.50
2018-05-31T20:22:37.140Z,63.10
2018-05-31T20:25:04.769Z,63.00
2018-05-31T20:27:32.335Z,63.50
2018-05-31T20:29:59.949Z,63.40
2018-05-31T20:32:27.565Z,63.70
2018-05-31T20:34:55.114Z,63.60
2018-05-31T20:37:23.479Z,63.30
2018-05-31T20:39:51.055Z,63.20
2018-05-31T20:42:18.631Z,63.50
2018-05-31T20:44:46.208Z,63.40
2018-05-31T20:47:13.747Z,64.00
2018-05-31T20:49:41.321Z,63.80
2018-05-31T20:52:08.890Z,63.70
2018-05-31T20:54:36.433Z,63.80
2018-05-31T20:57:04.094Z,62.50
2018-05-31T20:59:31.641Z,62.30
2018-05-31T21:01:59.200Z,62.20
2018-05-31T21:04:26.799Z,60.90
2018-05-31T21:06:54.388Z,59.70
2018-05-31T21:09:21.928Z,58.90
2018-05-31T21:11:49.576Z,58.80
2018-05-31T21:14:17.120Z,58.50
2018-05-31T21:16:44.671Z,57.90
2018-05-31T21:19:12.306Z,56.70
2018-05-31T21:21:39.888Z,56.70
2018-05-31T21:24:08.227Z,57.30
2018-05-31T21:26:35.753Z,57.20
2018-05-31T21:29:03.343Z,56.10
2018-05-31T21:31:31.723Z,56.20
2018-05-31T21:33:59.340Z,56.20
2018-05-31T21:36:26.896Z,55.70
2018-05-31T21:38:54.465Z,55.70
2018-05-31T21:41:22.025Z,56.20
2018-05-31T21:43:49.563Z,56.50
2018-05-31T21:46:17.188Z,54.60
2018-05-31T21:48:44.817Z,53.80
2018-05-31T21:51:12.366Z,54.00
2018-05-31T21:53:39.933Z,54.20
2018-05-31T21:56:07.470Z,53.80
2018-05-31T21:58:35.042Z,53.50
2018-05-31T22:01:02.617Z,54.30
2018-05-31T22:03:30.178Z,54.50
2018-05-31T22:05:57.732Z,54.60
2018-05-31T22:08:25.297Z,55.20
2018-05-31T22:10:52.872Z,56.10
2018-05-31T22:13:20.405Z,56.60
2018-05-31T22:15:48.253Z,56.60
2018-05-31T22:18:15.843Z,56.20
2018-05-31T22:20:43.427Z,55.90
2018-05-31T22:23:11.022Z,56.70
2018-05-31T22:25:38.568Z,56.40
2018-05-31T22:28:06.121Z,55.70
2018-05-31T22:30:33.689Z,56.00
2018-05-31T22:33:01.223Z,55.80
2018-05-31T22:35:28.808Z,55.50
2018-05-31T22:37:57.121Z,54.60
2018-05-31T22:40:24.686Z,54.60
2018-05-31T22:42:52.239Z,55.50
2018-05-31T22:45:19.800Z,56.20
2018-05-31T22:47:47.379Z,57.10
2018-05-31T22:50:14.926Z,58.10
2018-05-31T22:52:42.496Z,59.00
2018-05-31T22:55:10.057Z,59.40
2018-05-31T22:57:37.662Z,57.40
2018-05-31T23:00:05.280Z,56.70
2018-05-31T23:02:33.674Z,57.20
2018-05-31T23:05:01.233Z,57.20
2018-05-31T23:07:28.844Z,57.60
2018-05-31T23:09:57.163Z,58.50
2018-05-31T23:12:24.733Z,58.40
2018-05-31T23:14:52.283Z,58.80
2018-05-31T23:17:19.813Z,60.50
2018-05-31T23:19:47.380Z,60.40
2018-05-31T23:22:15.008Z,60.90
2018-05-31T23:24:42.572Z,61.30
2018-05-31T23:27:10.871Z,61.20
2018-05-31T23:29:38.418Z,61.10
2018-05-31T23:32:06.783Z,62.10
2018-05-31T23:34:35.420Z,61.50
2018-05-31T23:37:02.976Z,61.50
2018-05-31T23:39:30.552Z,61.30
2018-05-31T23:41:58.109Z,61.30
2018-05-31T23:44:25.769Z,60.80
2018-05-31T23:46:53.325Z,61.30
2018-05-31T23:49:20.939Z,61.90
2018-05-31T23:51:48.487Z,61.10
2018-05-31T23:54:16.053Z,60.70
2018-05-31T23:56:44.427Z,61.10
2018-05-31T23:59:12.773Z,61.00
